sensor_id;sensor_type;location;lat;lon;timestamp;temperature;humidity
7234;DHT22;3658;47.992;10.158;2023-11-21T00:00:32;21.40;45.40
7234;DHT22;3658;47.992;10.158;2023-11-21T00:02:59;21.40;45.40
7234;DHT22;3658;47.992;10.158;2023-11-21T00:05:26;21.40;45.40
7234;DHT22;3658;47.992;10.158;2023-11-21T00:07:54;21.40;45.40
7234;DHT22;3658;47.992;10.158;2023-11-21T00:10:21;21.40;45.50
7234;DHT22;3658;47.992;10.158;2023-11-21T00:12:47;21.40;45.50
7234;DHT22;3658;47.992;10.158;2023-11-21T00:15:14;21.30;45.40
7234;DHT22;3658;47.992;10.158;2023-11-21T00:17:41;21.30;45.30
7234;DHT22;3658;47.992;10.158;2023-11-21T00:20:09;21.30;45.40
7234;DHT22;3658;47.992;10.158;2023-11-21T00:22:38;21.30;46.10
7234;DHT22;3658;47.992;10.158;2023-11-21T00:25:08;21.30;45.40
7234;DHT22;3658;47.992;10.158;2023-11-21T00:27:35;21.30;45.40
7234;DHT22;3658;47.992;10.158;2023-11-21T00:30:02;21.30;45.50
7234;DHT22;3658;47.992;10.158;2023-11-21T00:32:30;21.30;45.50
7234;DHT22;3658;47.992;10.158;2023-11-21T00:34:56;21.30;45.40
7234;DHT22;3658;47.992;10.158;2023-11-21T00:37:24;21.30;45.50
7234;DHT22;3658;47.992;10.158;2023-11-21T00:39:51;21.30;45.50
7234;DHT22;3658;47.992;10.158;2023-11-21T00:42:19;21.30;45.40
7234;DHT22;3658;47.992;10.158;2023-11-21T00:44:47;21.30;45.40
7234;DHT22;3658;47.992;10.158;2023-11-21T00:47:13;21.30;45.40
7234;DHT22;3658;47.992;10.158;2023-11-21T00:49:41;21.20;45.30
7234;DHT22;3658;47.992;10.158;2023-11-21T00:52:08;21.20;45.40
7234;DHT22;3658;47.992;10.158;2023-11-21T00:54:35;21.20;45.40
7234;DHT22;3658;47.992;10.158;2023-11-21T00:57:01;21.20;45.40
7234;DHT22;3658;47.992;10.158;2023-11-21T00:59:30;21.20;45.30
7234;DHT22;3658;47.992;10.158;2023-11-21T01:01:57;21.20;45.40
7234;DHT22;3658;47.992;10.158;2023-11-21T01:04:25;21.20;45.40
7234;DHT22;3658;47.992;10.158;2023-11-21T01:06:52;21.20;45.40
7234;DHT22;3658;47.992;10.158;2023-11-21T01:09:19;21.20;45.40
7234;DHT22;3658;47.992;10.158;2023-11-21T01:11:46;21.20;45.40
7234;DHT22;3658;47.992;10.158;2023-11-21T01:14:13;21.20;45.40
7234;DHT22;3658;47.992;10.158;2023-11-21T01:16:41;21.20;45.40
7234;DHT22;3658;47.992;10.158;2023-11-21T01:19:08;21.20;45.40
7234;DHT22;3658;47.992;10.158;2023-11-21T01:21:35;21.20;45.40
7234;DHT22;3658;47.992;10.158;2023-11-21T01:24:03;21.20;45.40
7234;DHT22;3658;47.992;10.158;2023-11-21T01:26:32;21.20;45.40
7234;DHT22;3658;47.992;10.158;2023-11-21T01:28:59;21.20;45.40
7234;DHT22;3658;47.992;10.158;2023-11-21T01:31:26;21.20;45.40
7234;DHT22;3658;47.992;10.158;2023-11-21T01:33:56;21.20;45.40
7234;DHT22;3658;47.992;10.158;2023-11-21T01:36:23;21.10;45.30
7234;DHT22;3658;47.992;10.158;2023-11-21T01:38:57;21.10;45.30
7234;DHT22;3658;47.992;10.158;2023-11-21T01:41:25;21.20;45.40
7234;DHT22;3658;47.992;10.158;2023-11-21T01:43:52;21.10;45.30
7234;DHT22;3658;47.992;10.158;2023-11-21T01:46:19;21.10;45.30
7234;DHT22;3658;47.992;10.158;2023-11-21T01:48:47;21.10;45.30
7234;DHT22;3658;47.992;10.158;2023-11-21T01:51:16;21.10;45.30
7234;DHT22;3658;47.992;10.158;2023-11-21T01:53:44;21.10;45.30
7234;DHT22;3658;47.992;10.158;2023-11-21T01:56:12;21.10;45.30
7234;DHT22;3658;47.992;10.158;2023-11-21T01:58:39;21.20;45.40
7234;DHT22;3658;47.992;10.158;2023-11-21T02:01:06;21.10;45.30
7234;DHT22;3658;47.992;10.158;2023-11-21T02:03:35;21.10;45.30
7234;DHT22;3658;47.992;10.158;2023-11-21T02:06:02;21.10;45.30
7234;DHT22;3658;47.992;10.158;2023-11-21T02:08:30;21.10;45.30
7234;DHT22;3658;47.992;10.158;2023-11-21T02:10:57;21.10;45.30
7234;DHT22;3658;47.992;10.158;2023-11-21T02:13:24;21.10;45.30
7234;DHT22;3658;47.992;10.158;2023-11-21T02:15:50;21.10;45.30
7234;DHT22;3658;47.992;10.158;2023-11-21T02:18:19;21.10;45.30
7234;DHT22;3658;47.992;10.158;2023-11-21T02:20:47;21.10;45.40
7234;DHT22;3658;47.992;10.158;2023-11-21T02:23:15;21.10;45.30
7234;DHT22;3658;47.992;10.158;2023-11-21T02:25:43;21.10;45.30
7234;DHT22;3658;47.992;10.158;2023-11-21T02:28:10;21.10;45.40
7234;DHT22;3658;47.992;10.158;2023-11-21T02:30:38;21.10;45.30
7234;DHT22;3658;47.992;10.158;2023-11-21T02:33:05;21.10;45.40
7234;DHT22;3658;47.992;10.158;2023-11-21T02:35:32;21.10;45.30
7234;DHT22;3658;47.992;10.158;2023-11-21T02:38:00;21.10;45.30
7234;DHT22;3658;47.992;10.158;2023-11-21T02:40:28;21.10;45.30
7234;DHT22;3658;47.992;10.158;2023-11-21T02:42:55;21.00;45.30
7234;DHT22;3658;47.992;10.158;2023-11-21T02:45:24;21.10;45.30
7234;DHT22;3658;47.992;10.158;2023-11-21T02:47:51;21.00;45.30
7234;DHT22;3658;47.992;10.158;2023-11-21T02:50:22;21.10;45.30
7234;DHT22;3658;47.992;10.158;2023-11-21T02:52:49;21.00;45.30
7234;DHT22;3658;47.992;10.158;2023-11-21T02:55:16;21.00;45.30
7234;DHT22;3658;47.992;10.158;2023-11-21T02:57:44;21.00;45.30
7234;DHT22;3658;47.992;10.158;2023-11-21T03:00:12;21.10;45.30
7234;DHT22;3658;47.992;10.158;2023-11-21T03:02:40;21.00;45.30
7234;DHT22;3658;47.992;10.158;2023-11-21T03:05:07;21.00;45.30
7234;DHT22;3658;47.992;10.158;2023-11-21T03:07:35;21.00;45.30
7234;DHT22;3658;47.992;10.158;2023-11-21T03:10:02;21.10;45.40
7234;DHT22;3658;47.992;10.158;2023-11-21T03:12:30;21.00;45.30
7234;DHT22;3658;47.992;10.158;2023-11-21T03:14:58;21.10;45.40
7234;DHT22;3658;47.992;10.158;2023-11-21T03:17:25;21.00;45.30
7234;DHT22;3658;47.992;10.158;2023-11-21T03:19:51;21.00;45.30
7234;DHT22;3658;47.992;10.158;2023-11-21T03:22:18;21.00;45.30
7234;DHT22;3658;47.992;10.158;2023-11-21T03:24:45;21.00;45.30
7234;DHT22;3658;47.992;10.158;2023-11-21T03:27:12;21.00;45.30
7234;DHT22;3658;47.992;10.158;2023-11-21T03:29:39;21.00;45.30
7234;DHT22;3658;47.992;10.158;2023-11-21T03:32:07;21.00;45.30
7234;DHT22;3658;47.992;10.158;2023-11-21T03:34:34;21.00;45.30
7234;DHT22;3658;47.992;10.158;2023-11-21T03:37:01;21.00;45.30
7234;DHT22;3658;47.992;10.158;2023-11-21T03:39:28;21.00;45.30
7234;DHT22;3658;47.992;10.158;2023-11-21T03:41:54;21.00;45.30
7234;DHT22;3658;47.992;10.158;2023-11-21T03:44:21;21.00;45.30
7234;DHT22;3658;47.992;10.158;2023-11-21T03:46:50;21.00;45.30
7234;DHT22;3658;47.992;10.158;2023-11-21T03:49:18;21.00;45.90
7234;DHT22;3658;47.992;10.158;2023-11-21T03:51:45;21.00;45.30
7234;DHT22;3658;47.992;10.158;2023-11-21T03:54:12;21.00;45.30
7234;DHT22;3658;47.992;10.158;2023-11-21T03:56:40;21.00;45.30
7234;DHT22;3658;47.992;10.158;2023-11-21T03:59:07;20.90;45.20
7234;DHT22;3658;47.992;10.158;2023-11-21T04:01:33;20.90;45.20
7234;DHT22;3658;47.992;10.158;2023-11-21T04:04:00;20.90;45.20
7234;DHT22;3658;47.992;10.158;2023-11-21T04:06:28;20.90;45.20
7234;DHT22;3658;47.992;10.158;2023-11-21T04:08:55;20.90;45.20
7234;DHT22;3658;47.992;10.158;2023-11-21T04:11:22;20.90;45.20
7234;DHT22;3658;47.992;10.158;2023-11-21T04:13:49;20.90;45.30
7234;DHT22;3658;47.992;10.158;2023-11-21T04:16:15;20.90;45.30
7234;DHT22;3658;47.992;10.158;2023-11-21T04:18:43;20.90;45.90
7234;DHT22;3658;47.992;10.158;2023-11-21T04:21:10;20.90;45.30
7234;DHT22;3658;47.992;10.158;2023-11-21T04:23:38;20.90;45.30
7234;DHT22;3658;47.992;10.158;2023-11-21T04:26:06;20.90;45.20
7234;DHT22;3658;47.992;10.158;2023-11-21T04:28:33;20.90;45.30
7234;DHT22;3658;47.992;10.158;2023-11-21T04:31:00;20.90;45.20
7234;DHT22;3658;47.992;10.158;2023-11-21T04:33:27;20.90;45.20
7234;DHT22;3658;47.992;10.158;2023-11-21T04:35:54;20.90;45.30
7234;DHT22;3658;47.992;10.158;2023-11-21T04:38:21;20.90;45.20
7234;DHT22;3658;47.992;10.158;2023-11-21T04:40:49;20.90;45.20
7234;DHT22;3658;47.992;10.158;2023-11-21T04:43:16;20.90;45.20
7234;DHT22;3658;47.992;10.158;2023-11-21T04:45:42;20.90;45.20
7234;DHT22;3658;47.992;10.158;2023-11-21T04:48:09;20.90;45.20
7234;DHT22;3658;47.992;10.158;2023-11-21T04:50:36;20.90;45.20
7234;DHT22;3658;47.992;10.158;2023-11-21T04:53:04;20.90;45.20
7234;DHT22;3658;47.992;10.158;2023-11-21T04:55:31;20.90;45.20
7234;DHT22;3658;47.992;10.158;2023-11-21T04:57:59;20.90;45.20
7234;DHT22;3658;47.992;10.158;2023-11-21T05:00:26;20.90;45.60
7234;DHT22;3658;47.992;10.158;2023-11-21T05:02:53;20.90;45.50
7234;DHT22;3658;47.992;10.158;2023-11-21T05:05:20;20.80;45.40
7234;DHT22;3658;47.992;10.158;2023-11-21T05:07:46;20.90;45.20
7234;DHT22;3658;47.992;10.158;2023-11-21T05:10:14;20.90;45.30
7234;DHT22;3658;47.992;10.158;2023-11-21T05:12:41;20.90;45.20
7234;DHT22;3658;47.992;10.158;2023-11-21T05:15:14;20.80;45.10
7234;DHT22;3658;47.992;10.158;2023-11-21T05:17:41;20.90;45.20
7234;DHT22;3658;47.992;10.158;2023-11-21T05:20:09;20.90;45.20
7234;DHT22;3658;47.992;10.158;2023-11-21T05:22:37;20.90;45.20
7234;DHT22;3658;47.992;10.158;2023-11-21T05:25:05;20.80;45.10
7234;DHT22;3658;47.992;10.158;2023-11-21T05:27:33;20.90;45.30
7234;DHT22;3658;47.992;10.158;2023-11-21T05:30:01;20.90;45.80
7234;DHT22;3658;47.992;10.158;2023-11-21T05:32:29;20.80;45.10
7234;DHT22;3658;47.992;10.158;2023-11-21T05:34:56;20.80;45.10
7234;DHT22;3658;47.992;10.158;2023-11-21T05:37:22;20.80;45.10
7234;DHT22;3658;47.992;10.158;2023-11-21T05:39:49;20.80;45.10
7234;DHT22;3658;47.992;10.158;2023-11-21T05:42:16;20.80;45.20
7234;DHT22;3658;47.992;10.158;2023-11-21T05:44:43;20.80;45.10
7234;DHT22;3658;47.992;10.158;2023-11-21T05:47:10;20.80;45.10
7234;DHT22;3658;47.992;10.158;2023-11-21T05:49:40;20.80;45.20
7234;DHT22;3658;47.992;10.158;2023-11-21T05:52:07;20.80;45.60
7234;DHT22;3658;47.992;10.158;2023-11-21T05:54:35;20.90;46.60
7234;DHT22;3658;47.992;10.158;2023-11-21T05:57:02;21.00;46.30
7234;DHT22;3658;47.992;10.158;2023-11-21T05:59:29;20.90;46.10
7234;DHT22;3658;47.992;10.158;2023-11-21T06:01:56;20.90;46.00
7234;DHT22;3658;47.992;10.158;2023-11-21T06:04:24;20.90;46.00
7234;DHT22;3658;47.992;10.158;2023-11-21T06:06:52;20.90;45.90
7234;DHT22;3658;47.992;10.158;2023-11-21T06:09:19;20.80;45.80
7234;DHT22;3658;47.992;10.158;2023-11-21T06:11:47;20.90;45.80
7234;DHT22;3658;47.992;10.158;2023-11-21T06:14:14;20.90;45.90
7234;DHT22;3658;47.992;10.158;2023-11-21T06:16:43;20.80;45.80
7234;DHT22;3658;47.992;10.158;2023-11-21T06:19:11;20.80;45.80
7234;DHT22;3658;47.992;10.158;2023-11-21T06:21:38;20.80;45.90
7234;DHT22;3658;47.992;10.158;2023-11-21T06:24:07;20.80;45.90
7234;DHT22;3658;47.992;10.158;2023-11-21T06:26:34;20.80;45.90
7234;DHT22;3658;47.992;10.158;2023-11-21T06:29:01;20.80;45.90
7234;DHT22;3658;47.992;10.158;2023-11-21T06:31:29;20.80;45.90
7234;DHT22;3658;47.992;10.158;2023-11-21T06:33:58;20.80;45.90
7234;DHT22;3658;47.992;10.158;2023-11-21T06:36:25;20.80;45.90
7234;DHT22;3658;47.992;10.158;2023-11-21T06:38:53;20.80;45.90
7234;DHT22;3658;47.992;10.158;2023-11-21T06:41:22;20.80;46.00
7234;DHT22;3658;47.992;10.158;2023-11-21T06:43:49;20.80;46.00
7234;DHT22;3658;47.992;10.158;2023-11-21T06:46:15;20.80;45.90
7234;DHT22;3658;47.992;10.158;2023-11-21T06:48:42;20.80;45.90
7234;DHT22;3658;47.992;10.158;2023-11-21T06:51:09;20.80;46.00
7234;DHT22;3658;47.992;10.158;2023-11-21T06:53:37;20.80;46.00
7234;DHT22;3658;47.992;10.158;2023-11-21T06:56:04;20.80;46.60
7234;DHT22;3658;47.992;10.158;2023-11-21T06:58:34;20.80;46.00
7234;DHT22;3658;47.992;10.158;2023-11-21T07:01:01;20.70;46.00
7234;DHT22;3658;47.992;10.158;2023-11-21T07:03:28;20.80;46.00
7234;DHT22;3658;47.992;10.158;2023-11-21T07:05:55;20.70;45.90
7234;DHT22;3658;47.992;10.158;2023-11-21T07:08:21;20.80;45.90
7234;DHT22;3658;47.992;10.158;2023-11-21T07:10:48;20.80;45.90
7234;DHT22;3658;47.992;10.158;2023-11-21T07:13:15;20.80;45.90
7234;DHT22;3658;47.992;10.158;2023-11-21T07:15:43;20.80;46.50
7234;DHT22;3658;47.992;10.158;2023-11-21T07:18:10;20.80;46.30
7234;DHT22;3658;47.992;10.158;2023-11-21T07:20:37;20.80;46.20
7234;DHT22;3658;47.992;10.158;2023-11-21T07:23:04;20.80;46.20
7234;DHT22;3658;47.992;10.158;2023-11-21T07:25:31;20.80;46.20
7234;DHT22;3658;47.992;10.158;2023-11-21T07:27:59;20.70;46.10
7234;DHT22;3658;47.992;10.158;2023-11-21T07:30:26;20.80;46.20
7234;DHT22;3658;47.992;10.158;2023-11-21T07:32:55;20.70;46.20
7234;DHT22;3658;47.992;10.158;2023-11-21T07:35:21;20.70;46.20
7234;DHT22;3658;47.992;10.158;2023-11-21T07:37:48;20.70;46.20
7234;DHT22;3658;47.992;10.158;2023-11-21T07:40:15;20.70;46.20
7234;DHT22;3658;47.992;10.158;2023-11-21T07:42:42;20.70;46.20
7234;DHT22;3658;47.992;10.158;2023-11-21T07:45:10;20.70;46.20
7234;DHT22;3658;47.992;10.158;2023-11-21T07:47:37;20.70;46.30
7234;DHT22;3658;47.992;10.158;2023-11-21T07:50:07;20.70;46.30
7234;DHT22;3658;47.992;10.158;2023-11-21T07:52:34;20.70;46.30
7234;DHT22;3658;47.992;10.158;2023-11-21T07:55:01;20.70;46.20
7234;DHT22;3658;47.992;10.158;2023-11-21T07:57:28;20.70;46.30
7234;DHT22;3658;47.992;10.158;2023-11-21T07:59:54;20.70;46.30
7234;DHT22;3658;47.992;10.158;2023-11-21T08:02:21;20.70;46.30
7234;DHT22;3658;47.992;10.158;2023-11-21T08:04:48;20.70;46.30
7234;DHT22;3658;47.992;10.158;2023-11-21T08:07:17;20.70;46.30
7234;DHT22;3658;47.992;10.158;2023-11-21T08:09:44;20.70;46.30
7234;DHT22;3658;47.992;10.158;2023-11-21T08:12:12;20.70;46.30
7234;DHT22;3658;47.992;10.158;2023-11-21T08:14:40;20.70;46.30
7234;DHT22;3658;47.992;10.158;2023-11-21T08:17:07;20.70;46.30
7234;DHT22;3658;47.992;10.158;2023-11-21T08:19:35;20.60;46.20
7234;DHT22;3658;47.992;10.158;2023-11-21T08:22:02;20.70;46.30
7234;DHT22;3658;47.992;10.158;2023-11-21T08:24:31;20.60;46.30
7234;DHT22;3658;47.992;10.158;2023-11-21T08:26:57;20.60;46.30
7234;DHT22;3658;47.992;10.158;2023-11-21T08:29:24;20.70;46.30
7234;DHT22;3658;47.992;10.158;2023-11-21T08:31:52;20.60;46.30
7234;DHT22;3658;47.992;10.158;2023-11-21T08:34:19;20.60;46.30
7234;DHT22;3658;47.992;10.158;2023-11-21T08:36:45;20.60;46.30
7234;DHT22;3658;47.992;10.158;2023-11-21T08:39:12;20.60;46.20
7234;DHT22;3658;47.992;10.158;2023-11-21T08:41:43;20.60;46.30
7234;DHT22;3658;47.992;10.158;2023-11-21T08:44:10;20.60;46.30
7234;DHT22;3658;47.992;10.158;2023-11-21T08:46:37;20.60;46.20
7234;DHT22;3658;47.992;10.158;2023-11-21T08:49:05;20.70;46.30
7234;DHT22;3658;47.992;10.158;2023-11-21T08:51:32;20.60;46.20
7234;DHT22;3658;47.992;10.158;2023-11-21T08:53:58;20.60;46.20
7234;DHT22;3658;47.992;10.158;2023-11-21T08:56:27;20.60;46.20
7234;DHT22;3658;47.992;10.158;2023-11-21T08:58:55;20.60;46.30
7234;DHT22;3658;47.992;10.158;2023-11-21T09:01:22;20.60;46.30
7234;DHT22;3658;47.992;10.158;2023-11-21T09:03:50;20.60;46.30
7234;DHT22;3658;47.992;10.158;2023-11-21T09:06:17;20.60;46.30
7234;DHT22;3658;47.992;10.158;2023-11-21T09:08:43;20.60;46.30
7234;DHT22;3658;47.992;10.158;2023-11-21T09:11:10;20.60;46.30
7234;DHT22;3658;47.992;10.158;2023-11-21T09:13:37;20.60;46.30
7234;DHT22;3658;47.992;10.158;2023-11-21T09:16:06;20.60;46.30
7234;DHT22;3658;47.992;10.158;2023-11-21T09:18:33;20.60;46.30
7234;DHT22;3658;47.992;10.158;2023-11-21T09:20:59;20.60;46.30
7234;DHT22;3658;47.992;10.158;2023-11-21T09:23:26;20.60;46.30
7234;DHT22;3658;47.992;10.158;2023-11-21T09:25:53;20.60;46.30
7234;DHT22;3658;47.992;10.158;2023-11-21T09:28:22;20.60;46.30
7234;DHT22;3658;47.992;10.158;2023-11-21T09:30:49;20.60;46.30
7234;DHT22;3658;47.992;10.158;2023-11-21T09:33:17;20.60;46.30
7234;DHT22;3658;47.992;10.158;2023-11-21T09:35:44;20.60;46.30
7234;DHT22;3658;47.992;10.158;2023-11-21T09:38:11;20.60;46.30
7234;DHT22;3658;47.992;10.158;2023-11-21T09:40:38;20.60;46.30
7234;DHT22;3658;47.992;10.158;2023-11-21T09:43:07;20.60;46.30
7234;DHT22;3658;47.992;10.158;2023-11-21T09:45:44;20.60;46.30
7234;DHT22;3658;47.992;10.158;2023-11-21T09:48:12;20.60;46.30
7234;DHT22;3658;47.992;10.158;2023-11-21T09:50:42;20.60;46.30
7234;DHT22;3658;47.992;10.158;2023-11-21T09:53:13;20.60;46.40
7234;DHT22;3658;47.992;10.158;2023-11-21T09:55:43;20.60;46.40
7234;DHT22;3658;47.992;10.158;2023-11-21T09:58:10;20.60;46.40
7234;DHT22;3658;47.992;10.158;2023-11-21T10:00:41;20.60;46.30
7234;DHT22;3658;47.992;10.158;2023-11-21T10:03:08;20.60;46.40
7234;DHT22;3658;47.992;10.158;2023-11-21T10:05:35;20.50;46.30
7234;DHT22;3658;47.992;10.158;2023-11-21T10:08:06;20.60;46.30
7234;DHT22;3658;47.992;10.158;2023-11-21T10:10:33;20.50;46.30
7234;DHT22;3658;47.992;10.158;2023-11-21T10:13:02;20.50;46.30
7234;DHT22;3658;47.992;10.158;2023-11-21T10:15:33;20.60;46.30
7234;DHT22;3658;47.992;10.158;2023-11-21T10:18:02;20.60;46.40
7234;DHT22;3658;47.992;10.158;2023-11-21T10:20:30;20.50;46.30
7234;DHT22;3658;47.992;10.158;2023-11-21T10:22:59;20.60;46.40
7234;DHT22;3658;47.992;10.158;2023-11-21T10:25:29;20.50;46.30
7234;DHT22;3658;47.992;10.158;2023-11-21T10:27:59;20.50;46.30
7234;DHT22;3658;47.992;10.158;2023-11-21T10:30:32;20.50;46.30
7234;DHT22;3658;47.992;10.158;2023-11-21T10:33:02;20.50;46.30
7234;DHT22;3658;47.992;10.158;2023-11-21T10:35:42;20.50;46.30
7234;DHT22;3658;47.992;10.158;2023-11-21T10:38:12;20.50;46.30
7234;DHT22;3658;47.992;10.158;2023-11-21T10:40:41;20.50;46.30
7234;DHT22;3658;47.992;10.158;2023-11-21T10:43:08;20.50;46.30
7234;DHT22;3658;47.992;10.158;2023-11-21T10:45:36;20.50;46.30
7234;DHT22;3658;47.992;10.158;2023-11-21T10:48:05;20.50;46.30
7234;DHT22;3658;47.992;10.158;2023-11-21T10:50:33;20.50;46.30
7234;DHT22;3658;47.992;10.158;2023-11-21T10:53:03;20.50;46.30
7234;DHT22;3658;47.992;10.158;2023-11-21T10:55:31;20.50;46.30
7234;DHT22;3658;47.992;10.158;2023-11-21T10:58:00;20.50;46.30
7234;DHT22;3658;47.992;10.158;2023-11-21T11:00:29;20.50;46.30
7234;DHT22;3658;47.992;10.158;2023-11-21T11:02:56;20.50;46.30
7234;DHT22;3658;47.992;10.158;2023-11-21T11:05:25;20.50;46.30
7234;DHT22;3658;47.992;10.158;2023-11-21T11:07:58;20.50;46.30
7234;DHT22;3658;47.992;10.158;2023-11-21T11:10:26;20.50;46.30
7234;DHT22;3658;47.992;10.158;2023-11-21T11:12:55;20.50;46.30
7234;DHT22;3658;47.992;10.158;2023-11-21T11:15:24;20.50;46.30
7234;DHT22;3658;47.992;10.158;2023-11-21T11:17:52;20.50;46.30
7234;DHT22;3658;47.992;10.158;2023-11-21T11:20:23;20.50;46.40
7234;DHT22;3658;47.992;10.158;2023-11-21T11:22:59;20.50;46.40
7234;DHT22;3658;47.992;10.158;2023-11-21T11:25:39;20.50;46.40
7234;DHT22;3658;47.992;10.158;2023-11-21T11:28:17;20.50;46.40
7234;DHT22;3658;47.992;10.158;2023-11-21T11:30:58;20.50;46.40
7234;DHT22;3658;47.992;10.158;2023-11-21T11:33:34;20.50;46.30
7234;DHT22;3658;47.992;10.158;2023-11-21T11:36:06;20.50;46.30
7234;DHT22;3658;47.992;10.158;2023-11-21T11:38:35;20.50;46.30
7234;DHT22;3658;47.992;10.158;2023-11-21T11:41:03;20.50;46.40
7234;DHT22;3658;47.992;10.158;2023-11-21T11:43:30;20.50;46.30
7234;DHT22;3658;47.992;10.158;2023-11-21T11:46:02;20.50;46.30
7234;DHT22;3658;47.992;10.158;2023-11-21T11:48:30;20.50;46.30
7234;DHT22;3658;47.992;10.158;2023-11-21T11:51:02;20.50;46.40
7234;DHT22;3658;47.992;10.158;2023-11-21T11:53:35;20.50;46.30
7234;DHT22;3658;47.992;10.158;2023-11-21T11:56:22;20.50;46.30
7234;DHT22;3658;47.992;10.158;2023-11-21T11:58:51;20.50;46.60
7234;DHT22;3658;47.992;10.158;2023-11-21T12:01:20;20.50;47.00
7234;DHT22;3658;47.992;10.158;2023-11-21T12:06:51;20.50;46.40
7234;DHT22;3658;47.992;10.158;2023-11-21T12:09:18;20.40;46.30
7234;DHT22;3658;47.992;10.158;2023-11-21T12:11:46;20.50;46.40
7234;DHT22;3658;47.992;10.158;2023-11-21T12:14:13;20.50;46.40
7234;DHT22;3658;47.992;10.158;2023-11-21T12:16:42;20.40;46.30
7234;DHT22;3658;47.992;10.158;2023-11-21T12:19:09;20.50;46.40
7234;DHT22;3658;47.992;10.158;2023-11-21T12:21:36;20.50;46.40
7234;DHT22;3658;47.992;10.158;2023-11-21T12:24:04;20.50;46.40
7234;DHT22;3658;47.992;10.158;2023-11-21T12:26:34;20.50;46.40
7234;DHT22;3658;47.992;10.158;2023-11-21T12:29:01;20.50;46.40
7234;DHT22;3658;47.992;10.158;2023-11-21T12:31:30;20.40;46.30
7234;DHT22;3658;47.992;10.158;2023-11-21T12:33:58;20.50;46.40
7234;DHT22;3658;47.992;10.158;2023-11-21T12:36:26;20.50;46.40
7234;DHT22;3658;47.992;10.158;2023-11-21T12:38:54;20.40;46.30
7234;DHT22;3658;47.992;10.158;2023-11-21T12:41:21;20.50;46.40
7234;DHT22;3658;47.992;10.158;2023-11-21T12:43:48;20.50;46.40
7234;DHT22;3658;47.992;10.158;2023-11-21T12:46:16;20.50;46.40
7234;DHT22;3658;47.992;10.158;2023-11-21T12:48:44;20.50;46.40
7234;DHT22;3658;47.992;10.158;2023-11-21T12:51:13;20.50;46.40
7234;DHT22;3658;47.992;10.158;2023-11-21T12:53:42;20.40;46.30
7234;DHT22;3658;47.992;10.158;2023-11-21T12:56:10;20.50;46.40
7234;DHT22;3658;47.992;10.158;2023-11-21T12:58:37;20.50;46.40
7234;DHT22;3658;47.992;10.158;2023-11-21T13:01:05;20.50;46.40
7234;DHT22;3658;47.992;10.158;2023-11-21T13:03:37;20.40;46.30
7234;DHT22;3658;47.992;10.158;2023-11-21T13:06:06;20.50;46.40
7234;DHT22;3658;47.992;10.158;2023-11-21T13:08:35;20.50;46.40
7234;DHT22;3658;47.992;10.158;2023-11-21T13:11:05;20.40;46.30
7234;DHT22;3658;47.992;10.158;2023-11-21T13:13:32;20.50;46.40
7234;DHT22;3658;47.992;10.158;2023-11-21T13:16:00;20.40;46.30
7234;DHT22;3658;47.992;10.158;2023-11-21T13:18:30;20.40;46.40
7234;DHT22;3658;47.992;10.158;2023-11-21T13:20:58;20.40;46.30
7234;DHT22;3658;47.992;10.158;2023-11-21T13:23:26;20.40;46.30
7234;DHT22;3658;47.992;10.158;2023-11-21T13:25:56;20.40;46.30
7234;DHT22;3658;47.992;10.158;2023-11-21T13:28:23;20.40;46.40
7234;DHT22;3658;47.992;10.158;2023-11-21T13:30:57;20.40;46.40
7234;DHT22;3658;47.992;10.158;2023-11-21T13:33:28;20.40;46.30
7234;DHT22;3658;47.992;10.158;2023-11-21T13:35:56;20.40;46.40
7234;DHT22;3658;47.992;10.158;2023-11-21T13:38:23;20.40;46.40
7234;DHT22;3658;47.992;10.158;2023-11-21T13:40:51;20.40;46.40
7234;DHT22;3658;47.992;10.158;2023-11-21T13:43:22;20.40;46.40
7234;DHT22;3658;47.992;10.158;2023-11-21T13:45:51;20.40;46.40
7234;DHT22;3658;47.992;10.158;2023-11-21T13:48:25;20.40;46.50
7234;DHT22;3658;47.992;10.158;2023-11-21T13:50:58;20.40;46.40
7234;DHT22;3658;47.992;10.158;2023-11-21T13:53:31;20.40;46.40
7234;DHT22;3658;47.992;10.158;2023-11-21T13:55:58;20.40;46.40
7234;DHT22;3658;47.992;10.158;2023-11-21T13:58:26;20.40;46.40
7234;DHT22;3658;47.992;10.158;2023-11-21T14:01:06;20.40;46.50
7234;DHT22;3658;47.992;10.158;2023-11-21T14:03:42;20.40;46.50
7234;DHT22;3658;47.992;10.158;2023-11-21T14:06:17;20.40;46.50
7234;DHT22;3658;47.992;10.158;2023-11-21T14:08:49;20.40;46.40
7234;DHT22;3658;47.992;10.158;2023-11-21T14:11:16;20.40;46.50
7234;DHT22;3658;47.992;10.158;2023-11-21T14:13:49;20.40;46.50
7234;DHT22;3658;47.992;10.158;2023-11-21T14:16:16;20.40;46.50
7234;DHT22;3658;47.992;10.158;2023-11-21T14:18:43;20.40;46.50
7234;DHT22;3658;47.992;10.158;2023-11-21T14:21:19;20.40;46.50
7234;DHT22;3658;47.992;10.158;2023-11-21T14:23:47;20.40;46.50
7234;DHT22;3658;47.992;10.158;2023-11-21T14:26:13;20.40;46.50
7234;DHT22;3658;47.992;10.158;2023-11-21T14:28:41;20.40;46.50
7234;DHT22;3658;47.992;10.158;2023-11-21T14:31:10;20.40;46.60
7234;DHT22;3658;47.992;10.158;2023-11-21T14:33:39;20.30;47.10
7234;DHT22;3658;47.992;10.158;2023-11-21T14:36:07;20.40;46.60
7234;DHT22;3658;47.992;10.158;2023-11-21T14:38:35;20.40;46.60
7234;DHT22;3658;47.992;10.158;2023-11-21T14:41:02;20.30;46.40
7234;DHT22;3658;47.992;10.158;2023-11-21T14:43:32;20.30;46.40
7234;DHT22;3658;47.992;10.158;2023-11-21T14:48:30;20.30;46.50
7234;DHT22;3658;47.992;10.158;2023-11-21T14:51:08;20.30;46.40
7234;DHT22;3658;47.992;10.158;2023-11-21T14:53:53;20.30;46.40
7234;DHT22;3658;47.992;10.158;2023-11-21T14:56:20;20.30;46.40
7234;DHT22;3658;47.992;10.158;2023-11-21T14:58:52;20.30;46.50
7234;DHT22;3658;47.992;10.158;2023-11-21T15:01:20;20.30;46.50
7234;DHT22;3658;47.992;10.158;2023-11-21T15:03:57;20.30;46.50
7234;DHT22;3658;47.992;10.158;2023-11-21T15:06:24;20.30;46.50
7234;DHT22;3658;47.992;10.158;2023-11-21T15:08:56;20.30;46.50
7234;DHT22;3658;47.992;10.158;2023-11-21T15:11:54;20.30;46.50
7234;DHT22;3658;47.992;10.158;2023-11-21T15:14:28;20.30;46.50
7234;DHT22;3658;47.992;10.158;2023-11-21T15:16:57;20.30;46.60
7234;DHT22;3658;47.992;10.158;2023-11-21T15:19:26;20.30;46.50
7234;DHT22;3658;47.992;10.158;2023-11-21T15:21:54;20.30;46.50
7234;DHT22;3658;47.992;10.158;2023-11-21T15:24:21;20.30;46.50
7234;DHT22;3658;47.992;10.158;2023-11-21T15:26:48;20.30;46.50
7234;DHT22;3658;47.992;10.158;2023-11-21T15:29:15;20.30;46.50
7234;DHT22;3658;47.992;10.158;2023-11-21T15:31:43;20.30;46.50
7234;DHT22;3658;47.992;10.158;2023-11-21T15:34:14;20.30;46.50
7234;DHT22;3658;47.992;10.158;2023-11-21T15:36:42;20.30;46.60
7234;DHT22;3658;47.992;10.158;2023-11-21T15:39:09;20.30;46.60
7234;DHT22;3658;47.992;10.158;2023-11-21T15:41:38;20.30;46.60
7234;DHT22;3658;47.992;10.158;2023-11-21T15:44:05;20.30;46.60
7234;DHT22;3658;47.992;10.158;2023-11-21T15:46:35;20.30;46.60
7234;DHT22;3658;47.992;10.158;2023-11-21T15:49:03;20.30;46.60
7234;DHT22;3658;47.992;10.158;2023-11-21T15:51:38;20.30;46.50
7234;DHT22;3658;47.992;10.158;2023-11-21T15:54:06;20.30;46.60
7234;DHT22;3658;47.992;10.158;2023-11-21T15:56:34;20.30;46.60